Pagina principale
METAR-TAF:

METAR-TAF

Aeroporti :

Aerodromo Hinterstoisser-Zeltweg

Zeltweg, Austria

latitudine: 47-12N, longitudine: 014-45E, altezza: 677 m

Osservazione

Il bollettino è stato emesso 39 minuti fa, alle 12:20 UTC
Vento 1 kt da direzioni variabili
Temperature 8°C
Umidità 61%
Pressione 1022 hPa

METAR: LOXZ 261220Z VRB01KT 30KM FEW070SC BKN230CI 08/01 Q1022 NOSIG

Ora: 14:59 (12:59 UTC)

Previsione

Il bollettino è stato emesso 1 ora e 44 minuti fa, alle 11:15 UTC
Previsione valida dal 26 alle 12 UTC al 26 alle 21 UTC
Vento 3 kt da direzioni variabili
Visibilità 10 km o più
Poco nuvoloso ad un'altezza di 7000 ft
Nuvoloso ad un'altezza di 25000 ft

TAF: LOXZ 261115Z 2612/2621 VRB03KT 9999 FEW070 BKN250

Osservazioni e previsioni meteorologiche di più di 4000 aeroporti (messaggi METAR e TAF).

Le stazioni disponibili sono rappresentate dai dischi gialli e rossi sulla carta.

Puntare il mouse per vedere il nome della stazione.

Clicca sopra per visualizzare le osservazioni e previsioni meteorologiche.

Per cambiare la mappa : fare clic sui pulsanti verdi con una croce nera per ingrandire, il pulsante verde con un trattino per diminuire, o sulla freccia verde per le mappe adiacenti.


METAR-TAF: